sensor_id;sensor_type;location;lat;lon;timestamp;pressure;altitude;pressure_sealevel;temperature;humidity
64078;BME280;51039;49.696;10.808;2022-09-09T00:02:05;98043.47;;;12.58;86.47
64078;BME280;51039;49.696;10.808;2022-09-09T00:04:00;98032.81;;;12.58;86.69
64078;BME280;51039;49.696;10.808;2022-09-09T00:06:31;98038.59;;;12.55;86.73
64078;BME280;51039;49.696;10.808;2022-09-09T00:09:08;98035.16;;;12.55;86.94
64078;BME280;51039;49.696;10.808;2022-09-09T00:16:58;98041.91;;;12.51;87.41
64078;BME280;51039;49.696;10.808;2022-09-09T00:19:32;98034.19;;;12.49;87.11
64078;BME280;51039;49.696;10.808;2022-09-09T00:25:00;98034.03;;;12.44;87.28
64078;BME280;51039;49.696;10.808;2022-09-09T00:27:44;98030.00;;;12.42;87.37
64078;BME280;51039;49.696;10.808;2022-09-09T00:30:22;98020.16;;;12.42;87.91
64078;BME280;51039;49.696;10.808;2022-09-09T00:32:50;98025.63;;;12.47;87.89
64078;BME280;51039;49.696;10.808;2022-09-09T00:37:49;98026.28;;;12.43;87.73
64078;BME280;51039;49.696;10.808;2022-09-09T00:40:22;98026.28;;;12.43;87.72
64078;BME280;51039;49.696;10.808;2022-09-09T00:43:10;98023.25;;;12.39;87.57
64078;BME280;51039;49.696;10.808;2022-09-09T00:48:35;98018.41;;;12.36;88.02
64078;BME280;51039;49.696;10.808;2022-09-09T00:51:08;98023.72;;;12.36;87.96
64078;BME280;51039;49.696;10.808;2022-09-09T00:56:28;98030.22;;;12.40;87.97
64078;BME280;51039;49.696;10.808;2022-09-09T00:59:36;98037.59;;;12.38;87.92
64078;BME280;51039;49.696;10.808;2022-09-09T01:02:07;98027.97;;;12.37;88.20
64078;BME280;51039;49.696;10.808;2022-09-09T01:04:47;98028.56;;;12.39;88.18
64078;BME280;51039;49.696;10.808;2022-09-09T01:07:18;98021.06;;;12.36;88.28
64078;BME280;51039;49.696;10.808;2022-09-09T01:09:51;98023.13;;;12.34;88.44
64078;BME280;51039;49.696;10.808;2022-09-09T01:12:25;98031.63;;;12.24;88.77
64078;BME280;51039;49.696;10.808;2022-09-09T01:15:15;98027.31;;;12.23;89.00
64078;BME280;51039;49.696;10.808;2022-09-09T01:17:53;98026.16;;;12.19;88.82
64078;BME280;51039;49.696;10.808;2022-09-09T01:20:31;98026.94;;;12.20;88.71
64078;BME280;51039;49.696;10.808;2022-09-09T01:28:34;98030.94;;;12.29;89.16
64078;BME280;51039;49.696;10.808;2022-09-09T01:31:02;98031.09;;;12.34;89.34
64078;BME280;51039;49.696;10.808;2022-09-09T01:33:29;98028.34;;;12.41;89.78
64078;BME280;51039;49.696;10.808;2022-09-09T01:38:22;98035.16;;;12.55;90.05
64078;BME280;51039;49.696;10.808;2022-09-09T01:40:49;98030.63;;;12.55;89.86
64078;BME280;51039;49.696;10.808;2022-09-09T01:43:17;98032.03;;;12.58;89.85
64078;BME280;51039;49.696;10.808;2022-09-09T01:45:44;98029.38;;;12.58;89.90
64078;BME280;51039;49.696;10.808;2022-09-09T01:48:14;98031.81;;;12.60;89.96
64078;BME280;51039;49.696;10.808;2022-09-09T01:50:39;98022.13;;;12.65;90.38
64078;BME280;51039;49.696;10.808;2022-09-09T01:53:05;98019.38;;;12.72;89.89
64078;BME280;51039;49.696;10.808;2022-09-09T01:55:31;98008.75;;;12.72;90.29
64078;BME280;51039;49.696;10.808;2022-09-09T02:00:41;98019.75;;;12.75;90.49
64078;BME280;51039;49.696;10.808;2022-09-09T02:03:23;98015.97;;;12.83;90.24
64078;BME280;51039;49.696;10.808;2022-09-09T02:06:00;98027.16;;;12.85;90.36
64078;BME280;51039;49.696;10.808;2022-09-09T02:08:57;98022.69;;;12.86;90.26
64078;BME280;51039;49.696;10.808;2022-09-09T02:11:26;98022.00;;;12.90;90.13
64078;BME280;51039;49.696;10.808;2022-09-09T02:14:00;98021.09;;;12.96;89.93
64078;BME280;51039;49.696;10.808;2022-09-09T02:16:43;98023.16;;;12.94;90.06
64078;BME280;51039;49.696;10.808;2022-09-09T02:19:16;98021.88;;;12.97;89.78
64078;BME280;51039;49.696;10.808;2022-09-09T02:21:52;98020.88;;;12.98;90.00
64078;BME280;51039;49.696;10.808;2022-09-09T02:24:20;98021.88;;;12.97;89.95
64078;BME280;51039;49.696;10.808;2022-09-09T02:26:47;98026.41;;;12.96;90.06
64078;BME280;51039;49.696;10.808;2022-09-09T02:29:24;98027.22;;;12.97;89.85
64078;BME280;51039;49.696;10.808;2022-09-09T02:31:57;98027.81;;;12.99;89.92
64078;BME280;51039;49.696;10.808;2022-09-09T02:34:27;98024.47;;;13.04;89.92
64078;BME280;51039;49.696;10.808;2022-09-09T02:36:56;98019.38;;;13.02;90.04
64078;BME280;51039;49.696;10.808;2022-09-09T02:39:24;98011.97;;;13.04;90.08
64078;BME280;51039;49.696;10.808;2022-09-09T02:41:50;98025.06;;;13.06;90.20
64078;BME280;51039;49.696;10.808;2022-09-09T02:44:16;98010.47;;;13.08;90.26
64078;BME280;51039;49.696;10.808;2022-09-09T02:47:00;98014.78;;;13.09;90.36
64078;BME280;51039;49.696;10.808;2022-09-09T02:57:59;98018.75;;;13.19;89.92
64078;BME280;51039;49.696;10.808;2022-09-09T03:00:27;98021.63;;;13.17;90.10
64078;BME280;51039;49.696;10.808;2022-09-09T03:02:53;98021.03;;;13.15;90.14
64078;BME280;51039;49.696;10.808;2022-09-09T03:05:19;98017.91;;;13.18;90.07
64078;BME280;51039;49.696;10.808;2022-09-09T03:07:45;98023.22;;;13.18;90.04
64078;BME280;51039;49.696;10.808;2022-09-09T03:10:11;98017.47;;;13.21;89.85
64078;BME280;51039;49.696;10.808;2022-09-09T03:12:36;98021.50;;;13.24;89.75
64078;BME280;51039;49.696;10.808;2022-09-09T03:15:02;98016.53;;;13.27;89.66
64078;BME280;51039;49.696;10.808;2022-09-09T03:17:27;98011.22;;;13.27;89.63
64078;BME280;51039;49.696;10.808;2022-09-09T03:19:53;98016.31;;;13.29;89.85
64078;BME280;51039;49.696;10.808;2022-09-09T03:22:20;98016.94;;;13.31;89.64
64078;BME280;51039;49.696;10.808;2022-09-09T03:24:46;98018.00;;;13.30;89.83
64078;BME280;51039;49.696;10.808;2022-09-09T03:27:12;98010.91;;;13.35;89.63
64078;BME280;51039;49.696;10.808;2022-09-09T03:29:39;98007.81;;;13.39;89.77
64078;BME280;51039;49.696;10.808;2022-09-09T03:32:04;98011.84;;;13.41;89.74
64078;BME280;51039;49.696;10.808;2022-09-09T03:34:30;98003.53;;;13.38;89.68
64078;BME280;51039;49.696;10.808;2022-09-09T03:36:56;97997.97;;;13.39;89.61
64078;BME280;51039;49.696;10.808;2022-09-09T03:39:21;98003.78;;;13.36;89.55
64078;BME280;51039;49.696;10.808;2022-09-09T03:41:47;97998.44;;;13.36;89.10
64078;BME280;51039;49.696;10.808;2022-09-09T03:44:13;98000.75;;;13.32;89.31
64078;BME280;51039;49.696;10.808;2022-09-09T03:46:39;98003.41;;;13.32;89.33
64078;BME280;51039;49.696;10.808;2022-09-09T03:49:04;98003.81;;;13.29;89.50
64078;BME280;51039;49.696;10.808;2022-09-09T03:51:30;97993.78;;;13.31;89.34
64078;BME280;51039;49.696;10.808;2022-09-09T03:53:55;98000.75;;;13.32;89.45
64078;BME280;51039;49.696;10.808;2022-09-09T03:56:21;97992.53;;;13.34;89.49
64078;BME280;51039;49.696;10.808;2022-09-09T03:58:47;97991.97;;;13.32;89.62
64078;BME280;51039;49.696;10.808;2022-09-09T04:01:12;97993.78;;;13.31;89.30
64078;BME280;51039;49.696;10.808;2022-09-09T04:03:38;97994.38;;;13.33;89.03
64078;BME280;51039;49.696;10.808;2022-09-09T04:06:05;97991.72;;;13.33;89.10
64078;BME280;51039;49.696;10.808;2022-09-09T04:08:33;97978.41;;;13.33;89.31
64078;BME280;51039;49.696;10.808;2022-09-09T04:11:00;97983.16;;;13.31;89.30
64078;BME280;51039;49.696;10.808;2022-09-09T04:13:31;97986.94;;;13.24;89.59
64078;BME280;51039;49.696;10.808;2022-09-09T04:15:57;97995.97;;;13.23;89.29
64078;BME280;51039;49.696;10.808;2022-09-09T04:18:25;97993.53;;;13.21;89.51
64078;BME280;51039;49.696;10.808;2022-09-09T04:20:51;97994.34;;;13.22;89.60
64078;BME280;51039;49.696;10.808;2022-09-09T04:23:18;97989.16;;;13.27;89.36
64078;BME280;51039;49.696;10.808;2022-09-09T04:25:46;97989.53;;;13.30;89.46
64078;BME280;51039;49.696;10.808;2022-09-09T04:28:12;97997.28;;;13.32;89.60
64078;BME280;51039;49.696;10.808;2022-09-09T04:30:42;97991.97;;;13.32;89.08
64078;BME280;51039;49.696;10.808;2022-09-09T04:33:08;97995.66;;;13.31;89.70
64078;BME280;51039;49.696;10.808;2022-09-09T04:35:34;97990.69;;;13.34;89.37
64078;BME280;51039;49.696;10.808;2022-09-09T04:38:00;97996.38;;;13.38;89.27
64078;BME280;51039;49.696;10.808;2022-09-09T04:40:27;97998.09;;;13.44;88.86
64078;BME280;51039;49.696;10.808;2022-09-09T04:42:54;97997.88;;;13.46;88.55
64078;BME280;51039;49.696;10.808;2022-09-09T04:45:20;98006.44;;;13.48;88.56
64078;BME280;51039;49.696;10.808;2022-09-09T04:47:45;97999.47;;;13.47;88.46
64078;BME280;51039;49.696;10.808;2022-09-09T04:50:10;98011.41;;;13.44;88.33
64078;BME280;51039;49.696;10.808;2022-09-09T04:52:36;98019.84;;;13.41;88.52
64078;BME280;51039;49.696;10.808;2022-09-09T04:55:02;98016.38;;;13.41;88.35
64078;BME280;51039;49.696;10.808;2022-09-09T04:57:28;98020.09;;;13.40;88.39
64078;BME280;51039;49.696;10.808;2022-09-09T04:59:56;98019.25;;;13.39;88.33
64078;BME280;51039;49.696;10.808;2022-09-09T05:02:22;98023.31;;;13.42;88.25
64078;BME280;51039;49.696;10.808;2022-09-09T05:04:47;98025.06;;;13.48;88.19
64078;BME280;51039;49.696;10.808;2022-09-09T05:07:14;98034.19;;;13.52;88.15
64078;BME280;51039;49.696;10.808;2022-09-09T05:09:39;98026.56;;;13.55;87.90
64078;BME280;51039;49.696;10.808;2022-09-09T05:12:05;98033.06;;;13.60;87.41
64078;BME280;51039;49.696;10.808;2022-09-09T05:14:30;98031.44;;;13.70;86.96
64078;BME280;51039;49.696;10.808;2022-09-09T05:16:56;98037.94;;;13.74;87.01
64078;BME280;51039;49.696;10.808;2022-09-09T05:19:22;98045.56;;;13.83;86.49
64078;BME280;51039;49.696;10.808;2022-09-09T05:21:48;98044.63;;;13.89;86.31
64078;BME280;51039;49.696;10.808;2022-09-09T05:24:13;98041.03;;;13.95;85.83
64078;BME280;51039;49.696;10.808;2022-09-09T05:26:39;98043.47;;;14.08;85.45
64078;BME280;51039;49.696;10.808;2022-09-09T05:29:04;98050.63;;;14.31;84.08
64078;BME280;51039;49.696;10.808;2022-09-09T05:31:31;98040.03;;;14.60;82.85
64078;BME280;51039;49.696;10.808;2022-09-09T05:33:56;98050.78;;;14.77;82.16
64078;BME280;51039;49.696;10.808;2022-09-09T05:36:21;98048.84;;;14.89;81.83
64078;BME280;51039;49.696;10.808;2022-09-09T05:38:48;98046.44;;;14.88;81.31
64078;BME280;51039;49.696;10.808;2022-09-09T05:41:14;98044.25;;;14.85;81.78
64078;BME280;51039;49.696;10.808;2022-09-09T05:43:40;98052.06;;;14.75;81.83
64078;BME280;51039;49.696;10.808;2022-09-09T05:46:08;98045.88;;;14.45;83.32
64078;BME280;51039;49.696;10.808;2022-09-09T05:48:35;98056.84;;;14.49;83.85
64078;BME280;51039;49.696;10.808;2022-09-09T05:51:02;98049.66;;;14.49;83.75
64078;BME280;51039;49.696;10.808;2022-09-09T05:53:29;98061.03;;;14.57;83.58
64078;BME280;51039;49.696;10.808;2022-09-09T05:56:06;98056.94;;;14.66;83.65
64078;BME280;51039;49.696;10.808;2022-09-09T05:58:35;98059.50;;;14.72;83.22
64078;BME280;51039;49.696;10.808;2022-09-09T06:01:01;98053.53;;;14.82;82.98
64078;BME280;51039;49.696;10.808;2022-09-09T06:03:29;98057.75;;;14.95;82.10
64078;BME280;51039;49.696;10.808;2022-09-09T06:05:58;98056.09;;;15.06;81.64
64078;BME280;51039;49.696;10.808;2022-09-09T06:08:24;98062.38;;;15.28;80.76
64078;BME280;51039;49.696;10.808;2022-09-09T06:10:50;98048.31;;;15.50;80.73
64078;BME280;51039;49.696;10.808;2022-09-09T06:13:16;98057.22;;;15.73;79.85
64078;BME280;51039;49.696;10.808;2022-09-09T06:15:49;98054.50;;;15.84;79.55
64078;BME280;51039;49.696;10.808;2022-09-09T06:18:17;98052.97;;;16.27;78.04
64078;BME280;51039;49.696;10.808;2022-09-09T06:20:52;98057.38;;;16.61;76.08
64078;BME280;51039;49.696;10.808;2022-09-09T06:23:31;98052.63;;;16.63;75.61
64078;BME280;51039;49.696;10.808;2022-09-09T06:26:09;98046.94;;;16.81;75.17
64078;BME280;51039;49.696;10.808;2022-09-09T06:28:48;98045.81;;;16.77;74.83
64078;BME280;51039;49.696;10.808;2022-09-09T06:31:14;98051.22;;;16.60;73.75
64078;BME280;51039;49.696;10.808;2022-09-09T06:33:42;98045.31;;;16.80;73.86
64078;BME280;51039;49.696;10.808;2022-09-09T06:36:12;98042.06;;;17.27;73.43
64078;BME280;51039;49.696;10.808;2022-09-09T06:38:43;98045.97;;;17.79;71.83
64078;BME280;51039;49.696;10.808;2022-09-09T06:41:09;98042.88;;;17.60;72.08
64078;BME280;51039;49.696;10.808;2022-09-09T06:43:36;98044.28;;;17.68;72.06
64078;BME280;51039;49.696;10.808;2022-09-09T06:46:04;98049.53;;;17.85;70.20
64078;BME280;51039;49.696;10.808;2022-09-09T06:48:31;98048.50;;;17.91;70.83
64078;BME280;51039;49.696;10.808;2022-09-09T06:53:29;98059.50;;;17.95;71.00
64078;BME280;51039;49.696;10.808;2022-09-09T06:55:55;98056.53;;;17.91;70.82
64078;BME280;51039;49.696;10.808;2022-09-09T06:58:20;98064.69;;;17.74;71.65
64078;BME280;51039;49.696;10.808;2022-09-09T07:00:48;98056.38;;;17.76;71.94
64078;BME280;51039;49.696;10.808;2022-09-09T07:03:14;98064.00;;;17.57;70.33
64078;BME280;51039;49.696;10.808;2022-09-09T07:05:39;98065.28;;;17.49;72.66
64078;BME280;51039;49.696;10.808;2022-09-09T07:08:05;98069.22;;;18.59;67.84
64078;BME280;51039;49.696;10.808;2022-09-09T07:10:30;98072.63;;;19.02;66.30
64078;BME280;51039;49.696;10.808;2022-09-09T07:12:56;98071.53;;;18.93;66.78
64078;BME280;51039;49.696;10.808;2022-09-09T07:15:21;98076.34;;;18.86;66.69
64078;BME280;51039;49.696;10.808;2022-09-09T07:17:47;98074.28;;;19.34;64.76
64078;BME280;51039;49.696;10.808;2022-09-09T07:20:13;98071.66;;;19.95;62.19
64078;BME280;51039;49.696;10.808;2022-09-09T07:22:39;98064.78;;;20.54;61.41
64078;BME280;51039;49.696;10.808;2022-09-09T07:25:05;98066.38;;;20.71;59.60
64078;BME280;51039;49.696;10.808;2022-09-09T07:27:31;98064.78;;;21.14;58.33
64078;BME280;51039;49.696;10.808;2022-09-09T07:29:56;98072.50;;;20.76;58.36
64078;BME280;51039;49.696;10.808;2022-09-09T07:32:22;98066.53;;;19.99;61.42
64078;BME280;51039;49.696;10.808;2022-09-09T07:34:48;98069.22;;;19.99;61.49
64078;BME280;51039;49.696;10.808;2022-09-09T07:37:15;98069.72;;;20.27;59.31
64078;BME280;51039;49.696;10.808;2022-09-09T07:39:41;98072.50;;;24.05;51.10
64078;BME280;51039;49.696;10.808;2022-09-09T07:42:06;98063.59;;;24.33;50.43
64078;BME280;51039;49.696;10.808;2022-09-09T07:44:32;98068.09;;;23.25;51.62
64078;BME280;51039;49.696;10.808;2022-09-09T07:47:00;98069.59;;;24.02;48.07
64078;BME280;51039;49.696;10.808;2022-09-09T07:49:26;98066.84;;;23.17;51.31
64078;BME280;51039;49.696;10.808;2022-09-09T07:51:51;98074.09;;;23.41;49.50
64078;BME280;51039;49.696;10.808;2022-09-09T07:54:17;98062.31;;;23.50;50.97
64078;BME280;51039;49.696;10.808;2022-09-09T07:56:45;98071.09;;;23.04;52.11
64078;BME280;51039;49.696;10.808;2022-09-09T07:59:12;98067.28;;;23.43;51.41
64078;BME280;51039;49.696;10.808;2022-09-09T08:01:45;98066.72;;;24.40;48.57
64078;BME280;51039;49.696;10.808;2022-09-09T08:04:13;98072.88;;;23.66;49.69
64078;BME280;51039;49.696;10.808;2022-09-09T08:06:42;98075.69;;;23.23;49.63
64078;BME280;51039;49.696;10.808;2022-09-09T08:09:10;98070.31;;;23.56;48.38
64078;BME280;51039;49.696;10.808;2022-09-09T08:11:36;98085.41;;;23.95;47.89
64078;BME280;51039;49.696;10.808;2022-09-09T08:14:02;98078.38;;;23.94;48.09
64078;BME280;51039;49.696;10.808;2022-09-09T08:16:30;98079.06;;;24.87;46.90
64078;BME280;51039;49.696;10.808;2022-09-09T08:18:57;98078.81;;;27.22;41.22
64078;BME280;51039;49.696;10.808;2022-09-09T08:21:24;98077.00;;;29.53;37.89
64078;BME280;51039;49.696;10.808;2022-09-09T08:23:54;98077.75;;;29.12;36.43
64078;BME280;51039;49.696;10.808;2022-09-09T08:26:22;98073.69;;;28.76;36.82
64078;BME280;51039;49.696;10.808;2022-09-09T08:28:52;98078.81;;;29.28;35.68
64078;BME280;51039;49.696;10.808;2022-09-09T08:31:21;98079.78;;;27.35;38.48
64078;BME280;51039;49.696;10.808;2022-09-09T08:33:49;98085.50;;;26.50;40.38
64078;BME280;51039;49.696;10.808;2022-09-09T08:36:17;98091.16;;;27.46;38.39
64078;BME280;51039;49.696;10.808;2022-09-09T08:38:47;98092.25;;;27.27;38.66
64078;BME280;51039;49.696;10.808;2022-09-09T08:44:19;98090.38;;;28.74;37.20
64078;BME280;51039;49.696;10.808;2022-09-09T08:52:49;98098.84;;;27.44;39.66
64078;BME280;51039;49.696;10.808;2022-09-09T08:57:49;98097.69;;;28.44;37.53
64078;BME280;51039;49.696;10.808;2022-09-09T09:00:19;98097.06;;;28.38;37.99
64078;BME280;51039;49.696;10.808;2022-09-09T09:02:52;98090.81;;;28.38;37.53
64078;BME280;51039;49.696;10.808;2022-09-09T09:05:46;98084.63;;;28.67;36.50
64078;BME280;51039;49.696;10.808;2022-09-09T09:08:54;98081.03;;;29.68;35.11
64078;BME280;51039;49.696;10.808;2022-09-09T09:11:16;98082.25;;;29.92;35.57
64078;BME280;51039;49.696;10.808;2022-09-09T09:13:54;98081.84;;;29.48;35.55
64078;BME280;51039;49.696;10.808;2022-09-09T09:18:59;98072.69;;;28.81;36.80
64078;BME280;51039;49.696;10.808;2022-09-09T09:21:33;98075.25;;;27.83;38.19
64078;BME280;51039;49.696;10.808;2022-09-09T09:24:16;98082.81;;;27.16;39.97
64078;BME280;51039;49.696;10.808;2022-09-09T09:26:46;98081.84;;;27.90;39.34
64078;BME280;51039;49.696;10.808;2022-09-09T09:29:15;98084.31;;;29.41;35.81
64078;BME280;51039;49.696;10.808;2022-09-09T09:31:45;98079.53;;;29.16;36.00
64078;BME280;51039;49.696;10.808;2022-09-09T09:34:16;98077.78;;;29.54;36.49
64078;BME280;51039;49.696;10.808;2022-09-09T09:36:58;98074.66;;;28.71;36.54
64078;BME280;51039;49.696;10.808;2022-09-09T09:39:30;98071.63;;;28.94;36.81
64078;BME280;51039;49.696;10.808;2022-09-09T09:42:11;98066.09;;;29.87;36.21
64078;BME280;51039;49.696;10.808;2022-09-09T09:44:40;98067.84;;;29.07;36.99
64078;BME280;51039;49.696;10.808;2022-09-09T09:49:32;98058.19;;;26.06;41.83
64078;BME280;51039;49.696;10.808;2022-09-09T09:52:01;98059.97;;;25.06;44.07
64078;BME280;51039;49.696;10.808;2022-09-09T09:54:28;98062.31;;;24.85;44.95
64078;BME280;51039;49.696;10.808;2022-09-09T09:57:11;98064.44;;;24.75;45.00
64078;BME280;51039;49.696;10.808;2022-09-09T09:59:40;98052.03;;;26.72;40.87
64078;BME280;51039;49.696;10.808;2022-09-09T10:02:06;98058.47;;;28.96;36.79
64078;BME280;51039;49.696;10.808;2022-09-09T10:04:42;98046.13;;;29.41;35.40
64078;BME280;51039;49.696;10.808;2022-09-09T10:07:18;98038.16;;;30.27;34.39
64078;BME280;51039;49.696;10.808;2022-09-09T10:09:45;98040.28;;;29.97;33.18
64078;BME280;51039;49.696;10.808;2022-09-09T10:15:07;98043.09;;;28.70;34.62
64078;BME280;51039;49.696;10.808;2022-09-09T10:26:47;98030.91;;;29.52;34.53
64078;BME280;51039;49.696;10.808;2022-09-09T10:29:41;98041.00;;;30.18;33.64
64078;BME280;51039;49.696;10.808;2022-09-09T10:35:14;98016.59;;;30.87;32.37
64078;BME280;51039;49.696;10.808;2022-09-09T10:37:53;98015.94;;;29.91;33.33
64078;BME280;51039;49.696;10.808;2022-09-09T10:42:55;98025.66;;;26.72;39.02
64078;BME280;51039;49.696;10.808;2022-09-09T10:54:00;98013.47;;;25.81;40.98
64078;BME280;51039;49.696;10.808;2022-09-09T10:56:48;98030.06;;;24.98;42.21
64078;BME280;51039;49.696;10.808;2022-09-09T10:59:22;98021.41;;;25.09;42.41
64078;BME280;51039;49.696;10.808;2022-09-09T11:04:21;98011.13;;;26.77;39.59
64078;BME280;51039;49.696;10.808;2022-09-09T11:06:52;98010.41;;;26.54;39.66
64078;BME280;51039;49.696;10.808;2022-09-09T11:09:21;98010.19;;;25.39;42.11
64078;BME280;51039;49.696;10.808;2022-09-09T11:11:52;98018.53;;;24.92;42.25
64078;BME280;51039;49.696;10.808;2022-09-09T11:17:04;98018.50;;;24.42;42.47
64078;BME280;51039;49.696;10.808;2022-09-09T11:19:37;98023.31;;;24.45;42.76
64078;BME280;51039;49.696;10.808;2022-09-09T11:22:07;98015.69;;;24.47;43.43
64078;BME280;51039;49.696;10.808;2022-09-09T11:27:36;98001.59;;;25.45;41.13
64078;BME280;51039;49.696;10.808;2022-09-09T11:30:22;97990.03;;;26.16;40.80
64078;BME280;51039;49.696;10.808;2022-09-09T11:38:44;97990.66;;;26.88;36.15
64078;BME280;51039;49.696;10.808;2022-09-09T11:41:10;97998.28;;;26.02;36.33
64078;BME280;51039;49.696;10.808;2022-09-09T11:46:09;97995.91;;;25.56;36.88
64078;BME280;51039;49.696;10.808;2022-09-09T11:48:38;97989.19;;;26.07;35.61
64078;BME280;51039;49.696;10.808;2022-09-09T11:51:10;97991.53;;;26.31;35.51
64078;BME280;51039;49.696;10.808;2022-09-09T11:53:56;97993.88;;;27.08;33.17
64078;BME280;51039;49.696;10.808;2022-09-09T11:56:42;97989.16;;;27.78;33.06
64078;BME280;51039;49.696;10.808;2022-09-09T11:59:19;97979.03;;;27.31;32.58
64078;BME280;51039;49.696;10.808;2022-09-09T12:01:57;97979.91;;;27.61;33.29
64078;BME280;51039;49.696;10.808;2022-09-09T12:09:44;98027.50;;;24.93;35.51
64078;BME280;51039;49.696;10.808;2022-09-09T12:12:22;98028.22;;;23.68;41.00
64078;BME280;51039;49.696;10.808;2022-09-09T12:14:56;98028.19;;;22.79;42.28
64078;BME280;51039;49.696;10.808;2022-09-09T12:17:31;98054.03;;;22.42;43.03
64078;BME280;51039;49.696;10.808;2022-09-09T12:20:17;98058.44;;;21.74;44.92
64078;BME280;51039;49.696;10.808;2022-09-09T12:22:55;98064.88;;;21.44;47.21
64078;BME280;51039;49.696;10.808;2022-09-09T12:25:41;98058.34;;;21.10;50.56
64078;BME280;51039;49.696;10.808;2022-09-09T12:33:17;98027.50;;;20.92;53.87
64078;BME280;51039;49.696;10.808;2022-09-09T12:35:44;98043.41;;;20.89;54.50
64078;BME280;51039;49.696;10.808;2022-09-09T12:38:17;98041.91;;;20.67;56.43
64078;BME280;51039;49.696;10.808;2022-09-09T12:40:57;98042.97;;;20.71;56.65
64078;BME280;51039;49.696;10.808;2022-09-09T12:43:23;98047.91;;;20.33;58.08
64078;BME280;51039;49.696;10.808;2022-09-09T12:45:51;98054.94;;;20.19;59.56
64078;BME280;51039;49.696;10.808;2022-09-09T12:48:57;98052.03;;;19.95;60.53
64078;BME280;51039;49.696;10.808;2022-09-09T12:51:19;98050.63;;;20.13;59.60
64078;BME280;51039;49.696;10.808;2022-09-09T12:53:50;98049.53;;;20.34;63.22
64078;BME280;51039;49.696;10.808;2022-09-09T12:56:20;98062.31;;;20.78;63.98
64078;BME280;51039;49.696;10.808;2022-09-09T12:58:48;98054.03;;;21.88;62.30
64078;BME280;51039;49.696;10.808;2022-09-09T13:03:49;98044.59;;;22.63;55.63
64078;BME280;51039;49.696;10.808;2022-09-09T13:06:21;98045.81;;;22.52;52.66
64078;BME280;51039;49.696;10.808;2022-09-09T13:08:47;98042.06;;;22.24;53.71
64078;BME280;51039;49.696;10.808;2022-09-09T13:11:15;98042.91;;;22.48;53.51
64078;BME280;51039;49.696;10.808;2022-09-09T13:13:50;98030.28;;;22.63;51.86
64078;BME280;51039;49.696;10.808;2022-09-09T13:16:19;98028.41;;;22.82;49.96
64078;BME280;51039;49.696;10.808;2022-09-09T13:18:46;98031.63;;;22.65;49.17
64078;BME280;51039;49.696;10.808;2022-09-09T13:21:12;98028.59;;;22.67;49.04
64078;BME280;51039;49.696;10.808;2022-09-09T13:23:39;98023.38;;;22.76;48.69
64078;BME280;51039;49.696;10.808;2022-09-09T13:26:23;98024.31;;;22.66;50.13
64078;BME280;51039;49.696;10.808;2022-09-09T13:28:51;98007.44;;;22.55;50.11
64078;BME280;51039;49.696;10.808;2022-09-09T13:31:28;98012.75;;;23.03;50.14
64078;BME280;51039;49.696;10.808;2022-09-09T13:33:55;98005.47;;;23.04;50.03
64078;BME280;51039;49.696;10.808;2022-09-09T13:36:30;97998.41;;;22.84;51.03
64078;BME280;51039;49.696;10.808;2022-09-09T13:38:58;97990.47;;;22.92;50.29
64078;BME280;51039;49.696;10.808;2022-09-09T13:41:28;97995.78;;;22.79;50.96
64078;BME280;51039;49.696;10.808;2022-09-09T13:43:56;97990.78;;;23.10;50.91
64078;BME280;51039;49.696;10.808;2022-09-09T13:48:57;97984.25;;;23.30;48.55
64078;BME280;51039;49.696;10.808;2022-09-09T13:53:59;97971.88;;;23.10;46.93
64078;BME280;51039;49.696;10.808;2022-09-09T13:56:25;97974.63;;;23.24;46.73
64078;BME280;51039;49.696;10.808;2022-09-09T13:58:51;97959.56;;;23.04;46.72
64078;BME280;51039;49.696;10.808;2022-09-09T14:01:16;97957.69;;;23.18;46.66
64078;BME280;51039;49.696;10.808;2022-09-09T14:03:41;97967.28;;;23.43;46.57
64078;BME280;51039;49.696;10.808;2022-09-09T14:06:08;97955.66;;;23.43;44.93
64078;BME280;51039;49.696;10.808;2022-09-09T14:08:34;97957.88;;;23.55;44.79
64078;BME280;51039;49.696;10.808;2022-09-09T14:11:02;97959.06;;;23.95;43.83
64078;BME280;51039;49.696;10.808;2022-09-09T14:13:28;97960.06;;;23.85;42.63
64078;BME280;51039;49.696;10.808;2022-09-09T14:15:53;97956.41;;;23.62;43.19
64078;BME280;51039;49.696;10.808;2022-09-09T14:18:18;97965.44;;;22.87;44.09
64078;BME280;51039;49.696;10.808;2022-09-09T14:20:44;97965.44;;;22.68;43.84
64078;BME280;51039;49.696;10.808;2022-09-09T14:23:10;97966.19;;;23.11;44.25
64078;BME280;51039;49.696;10.808;2022-09-09T14:25:38;97962.53;;;23.68;42.36
64078;BME280;51039;49.696;10.808;2022-09-09T14:28:04;97964.13;;;23.69;41.10
64078;BME280;51039;49.696;10.808;2022-09-09T14:30:30;97960.56;;;24.01;40.84
64078;BME280;51039;49.696;10.808;2022-09-09T14:32:55;97965.38;;;24.04;40.99
64078;BME280;51039;49.696;10.808;2022-09-09T14:35:20;97971.00;;;24.08;40.59
64078;BME280;51039;49.696;10.808;2022-09-09T14:37:47;97957.16;;;24.37;40.41
64078;BME280;51039;49.696;10.808;2022-09-09T14:40:13;97960.47;;;24.20;39.87
64078;BME280;51039;49.696;10.808;2022-09-09T14:42:39;97951.94;;;23.85;40.89
64078;BME280;51039;49.696;10.808;2022-09-09T14:45:05;97952.69;;;23.58;41.95
64078;BME280;51039;49.696;10.808;2022-09-09T14:47:31;97962.72;;;23.71;40.89
64078;BME280;51039;49.696;10.808;2022-09-09T14:49:57;97964.31;;;23.72;41.28
64078;BME280;51039;49.696;10.808;2022-09-09T14:52:22;97972.13;;;23.27;42.11
64078;BME280;51039;49.696;10.808;2022-09-09T14:54:47;97973.09;;;22.99;41.68
64078;BME280;51039;49.696;10.808;2022-09-09T14:57:13;97978.84;;;22.54;41.88
64078;BME280;51039;49.696;10.808;2022-09-09T14:59:38;97963.81;;;22.24;42.86